sensor_id;sensor_type;location;lat;lon;timestamp;P1;durP1;ratioP1;P2;durP2;ratioP2
6205;SDS011;3136;48.788;9.772;2022-12-17T00:00:04;24.57;;;10.90;;
6205;SDS011;3136;48.788;9.772;2022-12-17T00:02:49;22.73;;;12.10;;
6205;SDS011;3136;48.788;9.772;2022-12-17T00:05:38;25.43;;;12.17;;
6205;SDS011;3136;48.788;9.772;2022-12-17T00:08:22;24.13;;;11.90;;
6205;SDS011;3136;48.788;9.772;2022-12-17T00:11:07;24.93;;;11.07;;
6205;SDS011;3136;48.788;9.772;2022-12-17T00:13:51;23.20;;;11.33;;
6205;SDS011;3136;48.788;9.772;2022-12-17T00:16:35;24.60;;;11.10;;
6205;SDS011;3136;48.788;9.772;2022-12-17T00:19:19;26.20;;;10.93;;
6205;SDS011;3136;48.788;9.772;2022-12-17T00:22:04;23.80;;;11.20;;
6205;SDS011;3136;48.788;9.772;2022-12-17T00:24:48;21.20;;;11.67;;
6205;SDS011;3136;48.788;9.772;2022-12-17T00:27:32;21.87;;;10.63;;
6205;SDS011;3136;48.788;9.772;2022-12-17T00:30:16;25.87;;;12.33;;
6205;SDS011;3136;48.788;9.772;2022-12-17T00:33:00;26.50;;;12.10;;
6205;SDS011;3136;48.788;9.772;2022-12-17T00:35:49;22.77;;;10.97;;
6205;SDS011;3136;48.788;9.772;2022-12-17T00:38:37;18.43;;;10.47;;
6205;SDS011;3136;48.788;9.772;2022-12-17T00:41:21;23.20;;;11.73;;
6205;SDS011;3136;48.788;9.772;2022-12-17T00:44:05;27.40;;;11.03;;
6205;SDS011;3136;48.788;9.772;2022-12-17T00:46:49;23.03;;;10.93;;
6205;SDS011;3136;48.788;9.772;2022-12-17T00:49:33;21.97;;;10.43;;
6205;SDS011;3136;48.788;9.772;2022-12-17T00:52:17;21.67;;;10.53;;
6205;SDS011;3136;48.788;9.772;2022-12-17T00:55:02;23.17;;;12.07;;
6205;SDS011;3136;48.788;9.772;2022-12-17T00:57:51;20.30;;;10.57;;
6205;SDS011;3136;48.788;9.772;2022-12-17T01:00:36;27.50;;;11.93;;
6205;SDS011;3136;48.788;9.772;2022-12-17T01:03:21;23.23;;;11.77;;
6205;SDS011;3136;48.788;9.772;2022-12-17T01:06:05;22.33;;;11.10;;
6205;SDS011;3136;48.788;9.772;2022-12-17T01:08:50;26.97;;;12.07;;
6205;SDS011;3136;48.788;9.772;2022-12-17T01:11:34;24.23;;;12.37;;
6205;SDS011;3136;48.788;9.772;2022-12-17T01:14:18;22.40;;;10.93;;
6205;SDS011;3136;48.788;9.772;2022-12-17T01:17:02;20.63;;;10.80;;
6205;SDS011;3136;48.788;9.772;2022-12-17T01:19:46;23.87;;;12.43;;
6205;SDS011;3136;48.788;9.772;2022-12-17T01:22:30;24.07;;;12.03;;
6205;SDS011;3136;48.788;9.772;2022-12-17T01:25:14;23.63;;;12.07;;
6205;SDS011;3136;48.788;9.772;2022-12-17T01:27:58;29.87;;;12.90;;
6205;SDS011;3136;48.788;9.772;2022-12-17T01:31:02;23.70;;;12.80;;
6205;SDS011;3136;48.788;9.772;2022-12-17T01:33:46;21.13;;;11.50;;
6205;SDS011;3136;48.788;9.772;2022-12-17T01:36:30;23.77;;;11.30;;
6205;SDS011;3136;48.788;9.772;2022-12-17T01:39:14;24.67;;;12.13;;
6205;SDS011;3136;48.788;9.772;2022-12-17T01:41:58;23.87;;;12.27;;
6205;SDS011;3136;48.788;9.772;2022-12-17T01:50:19;25.20;;;11.93;;
6205;SDS011;3136;48.788;9.772;2022-12-17T01:53:05;22.40;;;11.77;;
6205;SDS011;3136;48.788;9.772;2022-12-17T01:55:51;23.47;;;11.87;;
6205;SDS011;3136;48.788;9.772;2022-12-17T01:58:36;23.97;;;12.47;;
6205;SDS011;3136;48.788;9.772;2022-12-17T02:01:21;25.20;;;12.60;;
6205;SDS011;3136;48.788;9.772;2022-12-17T02:04:06;25.23;;;11.90;;
6205;SDS011;3136;48.788;9.772;2022-12-17T02:09:58;22.37;;;11.60;;
6205;SDS011;3136;48.788;9.772;2022-12-17T02:13:05;26.83;;;12.57;;
6205;SDS011;3136;48.788;9.772;2022-12-17T02:16:16;31.70;;;14.87;;
6205;SDS011;3136;48.788;9.772;2022-12-17T02:19:46;30.70;;;13.53;;
6205;SDS011;3136;48.788;9.772;2022-12-17T02:25:49;27.40;;;13.30;;
6205;SDS011;3136;48.788;9.772;2022-12-17T02:28:39;27.70;;;12.70;;
6205;SDS011;3136;48.788;9.772;2022-12-17T02:31:26;23.17;;;12.10;;
6205;SDS011;3136;48.788;9.772;2022-12-17T02:34:41;26.47;;;11.73;;
6205;SDS011;3136;48.788;9.772;2022-12-17T02:37:26;25.03;;;12.80;;
6205;SDS011;3136;48.788;9.772;2022-12-17T02:40:10;23.23;;;12.63;;
6205;SDS011;3136;48.788;9.772;2022-12-17T02:42:54;24.57;;;12.90;;
6205;SDS011;3136;48.788;9.772;2022-12-17T02:45:40;23.57;;;11.73;;
6205;SDS011;3136;48.788;9.772;2022-12-17T02:48:24;24.43;;;12.37;;
6205;SDS011;3136;48.788;9.772;2022-12-17T02:51:09;23.73;;;12.83;;
6205;SDS011;3136;48.788;9.772;2022-12-17T02:53:54;27.00;;;12.93;;
6205;SDS011;3136;48.788;9.772;2022-12-17T02:56:38;24.67;;;12.37;;
6205;SDS011;3136;48.788;9.772;2022-12-17T02:59:22;25.50;;;13.37;;
6205;SDS011;3136;48.788;9.772;2022-12-17T03:02:06;27.03;;;12.20;;
6205;SDS011;3136;48.788;9.772;2022-12-17T03:04:51;25.80;;;12.73;;
6205;SDS011;3136;48.788;9.772;2022-12-17T03:07:35;25.07;;;13.47;;
6205;SDS011;3136;48.788;9.772;2022-12-17T03:10:19;25.57;;;12.97;;
6205;SDS011;3136;48.788;9.772;2022-12-17T03:13:03;24.93;;;13.20;;
6205;SDS011;3136;48.788;9.772;2022-12-17T03:15:47;29.77;;;13.47;;
6205;SDS011;3136;48.788;9.772;2022-12-17T03:18:31;23.73;;;12.83;;
6205;SDS011;3136;48.788;9.772;2022-12-17T03:21:32;24.93;;;13.40;;
6205;SDS011;3136;48.788;9.772;2022-12-17T03:24:16;24.70;;;12.67;;
6205;SDS011;3136;48.788;9.772;2022-12-17T03:27:00;22.43;;;12.30;;
6205;SDS011;3136;48.788;9.772;2022-12-17T03:29:44;23.67;;;13.07;;
6205;SDS011;3136;48.788;9.772;2022-12-17T03:32:28;26.67;;;13.50;;
6205;SDS011;3136;48.788;9.772;2022-12-17T03:35:12;23.20;;;11.80;;
6205;SDS011;3136;48.788;9.772;2022-12-17T03:37:56;23.97;;;12.13;;
6205;SDS011;3136;48.788;9.772;2022-12-17T03:40:40;25.97;;;13.17;;
6205;SDS011;3136;48.788;9.772;2022-12-17T03:43:24;26.17;;;12.70;;
6205;SDS011;3136;48.788;9.772;2022-12-17T03:46:08;26.53;;;12.83;;
6205;SDS011;3136;48.788;9.772;2022-12-17T03:48:52;26.03;;;13.37;;
6205;SDS011;3136;48.788;9.772;2022-12-17T03:51:36;28.27;;;14.10;;
6205;SDS011;3136;48.788;9.772;2022-12-17T03:54:20;24.90;;;13.77;;
6205;SDS011;3136;48.788;9.772;2022-12-17T03:57:04;28.83;;;13.00;;
6205;SDS011;3136;48.788;9.772;2022-12-17T03:59:48;28.93;;;14.63;;
6205;SDS011;3136;48.788;9.772;2022-12-17T04:02:32;27.23;;;14.47;;
6205;SDS011;3136;48.788;9.772;2022-12-17T04:05:16;31.73;;;15.10;;
6205;SDS011;3136;48.788;9.772;2022-12-17T04:08:00;28.33;;;15.13;;
6205;SDS011;3136;48.788;9.772;2022-12-17T04:10:44;29.03;;;15.10;;
6205;SDS011;3136;48.788;9.772;2022-12-17T04:13:28;26.63;;;14.67;;
6205;SDS011;3136;48.788;9.772;2022-12-17T04:16:12;33.73;;;15.23;;
6205;SDS011;3136;48.788;9.772;2022-12-17T04:18:56;30.67;;;15.97;;
6205;SDS011;3136;48.788;9.772;2022-12-17T04:21:40;32.10;;;16.77;;
6205;SDS011;3136;48.788;9.772;2022-12-17T04:24:24;34.60;;;16.13;;
6205;SDS011;3136;48.788;9.772;2022-12-17T04:27:08;31.90;;;17.03;;
6205;SDS011;3136;48.788;9.772;2022-12-17T04:29:52;34.90;;;17.77;;
6205;SDS011;3136;48.788;9.772;2022-12-17T04:32:36;37.00;;;18.67;;
6205;SDS011;3136;48.788;9.772;2022-12-17T04:35:20;32.63;;;18.23;;
6205;SDS011;3136;48.788;9.772;2022-12-17T04:38:04;36.13;;;18.33;;
6205;SDS011;3136;48.788;9.772;2022-12-17T04:40:48;36.90;;;19.50;;
6205;SDS011;3136;48.788;9.772;2022-12-17T04:43:32;37.10;;;18.90;;
6205;SDS011;3136;48.788;9.772;2022-12-17T04:46:16;35.50;;;18.30;;
6205;SDS011;3136;48.788;9.772;2022-12-17T04:49:00;35.67;;;18.37;;
6205;SDS011;3136;48.788;9.772;2022-12-17T04:51:44;33.90;;;18.70;;
6205;SDS011;3136;48.788;9.772;2022-12-17T04:54:28;36.67;;;18.53;;
6205;SDS011;3136;48.788;9.772;2022-12-17T04:57:12;36.73;;;18.17;;
6205;SDS011;3136;48.788;9.772;2022-12-17T04:59:56;37.43;;;18.93;;
6205;SDS011;3136;48.788;9.772;2022-12-17T05:02:40;43.80;;;19.33;;
6205;SDS011;3136;48.788;9.772;2022-12-17T05:05:31;37.63;;;18.67;;
6205;SDS011;3136;48.788;9.772;2022-12-17T05:08:16;35.70;;;18.80;;
6205;SDS011;3136;48.788;9.772;2022-12-17T05:11:00;40.73;;;19.10;;
6205;SDS011;3136;48.788;9.772;2022-12-17T05:13:47;38.47;;;19.50;;
6205;SDS011;3136;48.788;9.772;2022-12-17T05:16:31;37.97;;;19.23;;
6205;SDS011;3136;48.788;9.772;2022-12-17T05:19:16;35.13;;;18.40;;
6205;SDS011;3136;48.788;9.772;2022-12-17T05:22:00;34.23;;;17.40;;
6205;SDS011;3136;48.788;9.772;2022-12-17T05:24:44;35.77;;;17.90;;
6205;SDS011;3136;48.788;9.772;2022-12-17T05:27:28;34.60;;;18.00;;
6205;SDS011;3136;48.788;9.772;2022-12-17T05:30:12;34.53;;;18.47;;
6205;SDS011;3136;48.788;9.772;2022-12-17T05:33:00;42.37;;;20.43;;
6205;SDS011;3136;48.788;9.772;2022-12-17T05:35:44;31.33;;;16.80;;
6205;SDS011;3136;48.788;9.772;2022-12-17T05:38:29;39.27;;;19.53;;
6205;SDS011;3136;48.788;9.772;2022-12-17T05:41:13;35.60;;;17.70;;
6205;SDS011;3136;48.788;9.772;2022-12-17T05:43:57;34.43;;;17.50;;
6205;SDS011;3136;48.788;9.772;2022-12-17T05:46:41;38.53;;;18.63;;
6205;SDS011;3136;48.788;9.772;2022-12-17T05:49:25;34.37;;;16.43;;
6205;SDS011;3136;48.788;9.772;2022-12-17T05:52:09;35.90;;;16.90;;
6205;SDS011;3136;48.788;9.772;2022-12-17T05:54:53;31.73;;;17.33;;
6205;SDS011;3136;48.788;9.772;2022-12-17T05:57:37;34.47;;;17.50;;
6205;SDS011;3136;48.788;9.772;2022-12-17T06:00:21;37.63;;;19.47;;
6205;SDS011;3136;48.788;9.772;2022-12-17T06:03:05;38.50;;;18.67;;
6205;SDS011;3136;48.788;9.772;2022-12-17T06:05:54;36.83;;;18.33;;
6205;SDS011;3136;48.788;9.772;2022-12-17T06:08:40;35.87;;;17.77;;
6205;SDS011;3136;48.788;9.772;2022-12-17T06:11:24;38.43;;;18.80;;
6205;SDS011;3136;48.788;9.772;2022-12-17T06:14:25;38.33;;;17.83;;
6205;SDS011;3136;48.788;9.772;2022-12-17T06:17:09;36.53;;;18.83;;
6205;SDS011;3136;48.788;9.772;2022-12-17T06:19:53;42.20;;;21.10;;
6205;SDS011;3136;48.788;9.772;2022-12-17T06:22:37;38.60;;;20.07;;
6205;SDS011;3136;48.788;9.772;2022-12-17T06:25:21;38.77;;;19.67;;
6205;SDS011;3136;48.788;9.772;2022-12-17T06:28:05;43.63;;;19.77;;
6205;SDS011;3136;48.788;9.772;2022-12-17T06:30:50;39.87;;;19.13;;
6205;SDS011;3136;48.788;9.772;2022-12-17T06:33:35;36.73;;;17.37;;
6205;SDS011;3136;48.788;9.772;2022-12-17T06:36:19;35.03;;;17.03;;
6205;SDS011;3136;48.788;9.772;2022-12-17T06:39:03;36.97;;;16.93;;
6205;SDS011;3136;48.788;9.772;2022-12-17T06:41:47;34.97;;;16.63;;
6205;SDS011;3136;48.788;9.772;2022-12-17T06:44:31;36.93;;;16.80;;
6205;SDS011;3136;48.788;9.772;2022-12-17T06:47:15;36.97;;;17.50;;
6205;SDS011;3136;48.788;9.772;2022-12-17T06:49:59;33.27;;;16.23;;
6205;SDS011;3136;48.788;9.772;2022-12-17T06:52:43;41.33;;;16.53;;
6205;SDS011;3136;48.788;9.772;2022-12-17T06:55:47;36.53;;;16.60;;
6205;SDS011;3136;48.788;9.772;2022-12-17T06:58:31;37.03;;;16.63;;
6205;SDS011;3136;48.788;9.772;2022-12-17T07:01:15;33.03;;;15.67;;
6205;SDS011;3136;48.788;9.772;2022-12-17T07:03:59;36.60;;;17.03;;
6205;SDS011;3136;48.788;9.772;2022-12-17T07:06:43;41.90;;;18.27;;
6205;SDS011;3136;48.788;9.772;2022-12-17T07:09:27;34.67;;;17.17;;
6205;SDS011;3136;48.788;9.772;2022-12-17T07:12:12;33.33;;;15.60;;
6205;SDS011;3136;48.788;9.772;2022-12-17T07:14:56;34.97;;;15.53;;
6205;SDS011;3136;48.788;9.772;2022-12-17T07:17:40;34.13;;;16.23;;
6205;SDS011;3136;48.788;9.772;2022-12-17T07:20:24;38.03;;;17.53;;
6205;SDS011;3136;48.788;9.772;2022-12-17T07:23:08;37.43;;;17.13;;
6205;SDS011;3136;48.788;9.772;2022-12-17T07:25:52;37.23;;;18.93;;
6205;SDS011;3136;48.788;9.772;2022-12-17T07:28:36;43.40;;;17.63;;
6205;SDS011;3136;48.788;9.772;2022-12-17T07:31:20;41.27;;;17.97;;
6205;SDS011;3136;48.788;9.772;2022-12-17T07:34:05;40.07;;;17.67;;
6205;SDS011;3136;48.788;9.772;2022-12-17T07:36:49;37.10;;;17.80;;
6205;SDS011;3136;48.788;9.772;2022-12-17T07:39:33;40.20;;;18.27;;
6205;SDS011;3136;48.788;9.772;2022-12-17T07:42:27;55.53;;;24.87;;
6205;SDS011;3136;48.788;9.772;2022-12-17T07:45:12;48.83;;;23.03;;
6205;SDS011;3136;48.788;9.772;2022-12-17T07:47:56;45.07;;;20.63;;
6205;SDS011;3136;48.788;9.772;2022-12-17T07:50:40;41.77;;;19.93;;
6205;SDS011;3136;48.788;9.772;2022-12-17T07:53:24;41.80;;;18.73;;
6205;SDS011;3136;48.788;9.772;2022-12-17T07:56:08;35.47;;;16.50;;
6205;SDS011;3136;48.788;9.772;2022-12-17T07:58:52;31.67;;;16.87;;
6205;SDS011;3136;48.788;9.772;2022-12-17T08:01:36;35.60;;;16.97;;
6205;SDS011;3136;48.788;9.772;2022-12-17T08:04:20;35.07;;;17.27;;
6205;SDS011;3136;48.788;9.772;2022-12-17T08:07:04;37.73;;;19.00;;
6205;SDS011;3136;48.788;9.772;2022-12-17T08:09:48;38.63;;;19.07;;
6205;SDS011;3136;48.788;9.772;2022-12-17T08:12:32;37.37;;;18.13;;
6205;SDS011;3136;48.788;9.772;2022-12-17T08:15:16;38.20;;;18.27;;
6205;SDS011;3136;48.788;9.772;2022-12-17T08:18:03;46.00;;;18.60;;
6205;SDS011;3136;48.788;9.772;2022-12-17T08:20:47;37.20;;;18.77;;
6205;SDS011;3136;48.788;9.772;2022-12-17T08:23:31;39.20;;;18.53;;
6205;SDS011;3136;48.788;9.772;2022-12-17T08:26:15;39.80;;;17.60;;
6205;SDS011;3136;48.788;9.772;2022-12-17T08:28:59;35.20;;;16.90;;
6205;SDS011;3136;48.788;9.772;2022-12-17T08:31:43;37.53;;;18.07;;
6205;SDS011;3136;48.788;9.772;2022-12-17T08:34:27;33.13;;;16.17;;
6205;SDS011;3136;48.788;9.772;2022-12-17T08:37:11;35.73;;;17.23;;
6205;SDS011;3136;48.788;9.772;2022-12-17T08:39:55;35.87;;;16.70;;
6205;SDS011;3136;48.788;9.772;2022-12-17T08:42:39;40.30;;;18.40;;
6205;SDS011;3136;48.788;9.772;2022-12-17T08:45:23;36.63;;;18.03;;
6205;SDS011;3136;48.788;9.772;2022-12-17T08:48:07;41.13;;;18.30;;
6205;SDS011;3136;48.788;9.772;2022-12-17T08:50:52;42.30;;;18.77;;
6205;SDS011;3136;48.788;9.772;2022-12-17T08:53:36;36.00;;;17.77;;
6205;SDS011;3136;48.788;9.772;2022-12-17T08:56:21;36.67;;;17.87;;
6205;SDS011;3136;48.788;9.772;2022-12-17T08:59:05;37.53;;;17.77;;
6205;SDS011;3136;48.788;9.772;2022-12-17T09:01:49;35.93;;;17.63;;
6205;SDS011;3136;48.788;9.772;2022-12-17T09:04:33;39.10;;;17.47;;
6205;SDS011;3136;48.788;9.772;2022-12-17T09:07:17;37.63;;;17.87;;
6205;SDS011;3136;48.788;9.772;2022-12-17T09:10:02;35.17;;;17.70;;
6205;SDS011;3136;48.788;9.772;2022-12-17T09:12:46;38.90;;;17.73;;
6205;SDS011;3136;48.788;9.772;2022-12-17T09:15:30;40.50;;;17.87;;
6205;SDS011;3136;48.788;9.772;2022-12-17T09:18:19;36.47;;;18.13;;
6205;SDS011;3136;48.788;9.772;2022-12-17T09:21:04;39.53;;;18.17;;
6205;SDS011;3136;48.788;9.772;2022-12-17T09:23:48;35.17;;;17.93;;
6205;SDS011;3136;48.788;9.772;2022-12-17T09:26:32;34.93;;;17.67;;
6205;SDS011;3136;48.788;9.772;2022-12-17T09:29:16;35.37;;;18.20;;
6205;SDS011;3136;48.788;9.772;2022-12-17T09:32:00;34.77;;;18.83;;
6205;SDS011;3136;48.788;9.772;2022-12-17T09:34:44;41.23;;;19.60;;
6205;SDS011;3136;48.788;9.772;2022-12-17T09:37:28;35.87;;;18.43;;
6205;SDS011;3136;48.788;9.772;2022-12-17T09:40:17;35.17;;;17.80;;
6205;SDS011;3136;48.788;9.772;2022-12-17T09:43:16;37.93;;;18.90;;
6205;SDS011;3136;48.788;9.772;2022-12-17T09:46:16;38.87;;;19.37;;
6205;SDS011;3136;48.788;9.772;2022-12-17T09:49:16;37.87;;;18.77;;
6205;SDS011;3136;48.788;9.772;2022-12-17T09:52:19;37.07;;;18.47;;
6205;SDS011;3136;48.788;9.772;2022-12-17T09:55:14;38.27;;;19.30;;
6205;SDS011;3136;48.788;9.772;2022-12-17T09:58:12;37.97;;;18.93;;
6205;SDS011;3136;48.788;9.772;2022-12-17T10:01:02;37.83;;;18.43;;
6205;SDS011;3136;48.788;9.772;2022-12-17T10:03:48;38.50;;;19.17;;
6205;SDS011;3136;48.788;9.772;2022-12-17T10:06:32;36.83;;;18.57;;
6205;SDS011;3136;48.788;9.772;2022-12-17T10:09:18;37.63;;;18.97;;
6205;SDS011;3136;48.788;9.772;2022-12-17T10:12:16;37.83;;;17.20;;
6205;SDS011;3136;48.788;9.772;2022-12-17T10:15:03;35.20;;;18.10;;
6205;SDS011;3136;48.788;9.772;2022-12-17T10:17:49;35.90;;;18.13;;
6205;SDS011;3136;48.788;9.772;2022-12-17T10:20:43;35.80;;;18.27;;
6205;SDS011;3136;48.788;9.772;2022-12-17T10:23:32;35.80;;;18.73;;
6205;SDS011;3136;48.788;9.772;2022-12-17T10:26:18;32.83;;;17.17;;
6205;SDS011;3136;48.788;9.772;2022-12-17T10:29:25;33.03;;;17.70;;
6205;SDS011;3136;48.788;9.772;2022-12-17T10:35:00;33.13;;;17.57;;
6205;SDS011;3136;48.788;9.772;2022-12-17T10:38:10;33.87;;;18.07;;
6205;SDS011;3136;48.788;9.772;2022-12-17T10:40:55;37.90;;;18.73;;
6205;SDS011;3136;48.788;9.772;2022-12-17T10:43:40;36.77;;;18.83;;
6205;SDS011;3136;48.788;9.772;2022-12-17T10:46:28;38.20;;;18.93;;
6205;SDS011;3136;48.788;9.772;2022-12-17T10:49:15;33.87;;;18.37;;
6205;SDS011;3136;48.788;9.772;2022-12-17T10:52:45;35.77;;;18.00;;
6205;SDS011;3136;48.788;9.772;2022-12-17T10:55:17;34.93;;;17.37;;
6205;SDS011;3136;48.788;9.772;2022-12-17T10:58:10;35.60;;;18.40;;
6205;SDS011;3136;48.788;9.772;2022-12-17T11:01:02;34.90;;;18.77;;
6205;SDS011;3136;48.788;9.772;2022-12-17T11:03:51;37.97;;;19.90;;
6205;SDS011;3136;48.788;9.772;2022-12-17T11:06:41;34.93;;;18.07;;
6205;SDS011;3136;48.788;9.772;2022-12-17T11:12:31;37.47;;;19.27;;
6205;SDS011;3136;48.788;9.772;2022-12-17T11:15:24;39.40;;;20.27;;
6205;SDS011;3136;48.788;9.772;2022-12-17T11:18:42;37.13;;;19.53;;
6205;SDS011;3136;48.788;9.772;2022-12-17T11:21:34;33.20;;;18.67;;
6205;SDS011;3136;48.788;9.772;2022-12-17T11:24:40;37.70;;;19.97;;
6205;SDS011;3136;48.788;9.772;2022-12-17T11:27:47;38.77;;;20.13;;
6205;SDS011;3136;48.788;9.772;2022-12-17T11:30:39;36.33;;;19.37;;
6205;SDS011;3136;48.788;9.772;2022-12-17T11:33:36;36.73;;;18.93;;
6205;SDS011;3136;48.788;9.772;2022-12-17T11:36:33;36.90;;;18.90;;
6205;SDS011;3136;48.788;9.772;2022-12-17T11:39:42;32.73;;;17.80;;
6205;SDS011;3136;48.788;9.772;2022-12-17T11:42:38;37.67;;;19.97;;
6205;SDS011;3136;48.788;9.772;2022-12-17T11:45:42;38.10;;;19.23;;
6205;SDS011;3136;48.788;9.772;2022-12-17T11:48:58;34.53;;;18.27;;
6205;SDS011;3136;48.788;9.772;2022-12-17T11:55:00;37.23;;;19.60;;
6205;SDS011;3136;48.788;9.772;2022-12-17T11:58:01;36.73;;;18.93;;
6205;SDS011;3136;48.788;9.772;2022-12-17T12:00:54;36.77;;;18.67;;
6205;SDS011;3136;48.788;9.772;2022-12-17T12:03:49;36.10;;;19.23;;
6205;SDS011;3136;48.788;9.772;2022-12-17T12:06:46;36.03;;;19.30;;
6205;SDS011;3136;48.788;9.772;2022-12-17T12:09:52;35.50;;;19.10;;
6205;SDS011;3136;48.788;9.772;2022-12-17T12:12:53;35.87;;;19.47;;
6205;SDS011;3136;48.788;9.772;2022-12-17T12:21:59;41.03;;;20.83;;
6205;SDS011;3136;48.788;9.772;2022-12-17T12:28:12;37.60;;;20.93;;
6205;SDS011;3136;48.788;9.772;2022-12-17T12:34:21;42.33;;;22.17;;
6205;SDS011;3136;48.788;9.772;2022-12-17T12:37:10;44.83;;;22.70;;
6205;SDS011;3136;48.788;9.772;2022-12-17T12:39:58;47.03;;;23.93;;
6205;SDS011;3136;48.788;9.772;2022-12-17T12:46:02;45.20;;;24.37;;
6205;SDS011;3136;48.788;9.772;2022-12-17T12:52:02;50.03;;;26.47;;
6205;SDS011;3136;48.788;9.772;2022-12-17T12:57:41;45.07;;;24.37;;
6205;SDS011;3136;48.788;9.772;2022-12-17T13:03:31;53.83;;;28.77;;
6205;SDS011;3136;48.788;9.772;2022-12-17T13:09:18;58.07;;;31.63;;
6205;SDS011;3136;48.788;9.772;2022-12-17T13:11:48;54.57;;;28.53;;
6205;SDS011;3136;48.788;9.772;2022-12-17T13:14:43;49.50;;;25.83;;
6205;SDS011;3136;48.788;9.772;2022-12-17T13:17:25;47.60;;;26.13;;
6205;SDS011;3136;48.788;9.772;2022-12-17T13:23:02;53.07;;;26.87;;
6205;SDS011;3136;48.788;9.772;2022-12-17T13:25:28;51.97;;;26.60;;
6205;SDS011;3136;48.788;9.772;2022-12-17T13:27:54;53.60;;;27.10;;
6205;SDS011;3136;48.788;9.772;2022-12-17T13:30:21;48.30;;;25.20;;
6205;SDS011;3136;48.788;9.772;2022-12-17T13:41:17;52.80;;;26.30;;
6205;SDS011;3136;48.788;9.772;2022-12-17T13:43:46;49.67;;;24.63;;
6205;SDS011;3136;48.788;9.772;2022-12-17T13:46:28;51.37;;;25.67;;
6205;SDS011;3136;48.788;9.772;2022-12-17T13:49:04;52.50;;;26.77;;
6205;SDS011;3136;48.788;9.772;2022-12-17T13:51:39;55.60;;;25.97;;
6205;SDS011;3136;48.788;9.772;2022-12-17T13:54:05;56.97;;;26.03;;
6205;SDS011;3136;48.788;9.772;2022-12-17T13:56:42;53.03;;;26.20;;
6205;SDS011;3136;48.788;9.772;2022-12-17T13:59:17;50.43;;;25.37;;
6205;SDS011;3136;48.788;9.772;2022-12-17T14:01:49;53.30;;;25.07;;
6205;SDS011;3136;48.788;9.772;2022-12-17T14:04:21;52.33;;;25.23;;
6205;SDS011;3136;48.788;9.772;2022-12-17T14:06:48;52.93;;;25.47;;
6205;SDS011;3136;48.788;9.772;2022-12-17T14:09:15;56.03;;;27.40;;
6205;SDS011;3136;48.788;9.772;2022-12-17T14:11:42;50.73;;;25.43;;
6205;SDS011;3136;48.788;9.772;2022-12-17T14:16:53;55.03;;;25.97;;
6205;SDS011;3136;48.788;9.772;2022-12-17T14:19:19;52.03;;;25.77;;
6205;SDS011;3136;48.788;9.772;2022-12-17T14:21:44;52.70;;;25.70;;
6205;SDS011;3136;48.788;9.772;2022-12-17T14:24:11;54.27;;;24.73;;
6205;SDS011;3136;48.788;9.772;2022-12-17T14:26:47;50.07;;;24.57;;
6205;SDS011;3136;48.788;9.772;2022-12-17T14:29:14;56.57;;;26.10;;
6205;SDS011;3136;48.788;9.772;2022-12-17T14:31:53;61.10;;;27.00;;
6205;SDS011;3136;48.788;9.772;2022-12-17T14:34:25;55.40;;;25.70;;
6205;SDS011;3136;48.788;9.772;2022-12-17T14:36:58;56.27;;;25.90;;
6205;SDS011;3136;48.788;9.772;2022-12-17T14:39:28;53.03;;;25.10;;
6205;SDS011;3136;48.788;9.772;2022-12-17T14:41:55;60.53;;;26.87;;
6205;SDS011;3136;48.788;9.772;2022-12-17T14:47:23;53.80;;;24.60;;
6205;SDS011;3136;48.788;9.772;2022-12-17T14:52:44;57.00;;;24.63;;
6205;SDS011;3136;48.788;9.772;2022-12-17T14:57:52;58.47;;;25.30;;
6205;SDS011;3136;48.788;9.772;2022-12-17T15:00:29;57.07;;;25.40;;
6205;SDS011;3136;48.788;9.772;2022-12-17T15:02:55;52.43;;;25.37;;
6205;SDS011;3136;48.788;9.772;2022-12-17T15:05:21;52.03;;;24.10;;
6205;SDS011;3136;48.788;9.772;2022-12-17T15:07:46;53.27;;;23.77;;
6205;SDS011;3136;48.788;9.772;2022-12-17T15:10:13;52.27;;;23.53;;
6205;SDS011;3136;48.788;9.772;2022-12-17T15:12:43;46.97;;;22.60;;
6205;SDS011;3136;48.788;9.772;2022-12-17T15:15:11;48.40;;;23.00;;
6205;SDS011;3136;48.788;9.772;2022-12-17T15:17:37;52.37;;;23.73;;
6205;SDS011;3136;48.788;9.772;2022-12-17T15:20:03;50.00;;;22.20;;
6205;SDS011;3136;48.788;9.772;2022-12-17T15:22:29;48.03;;;21.73;;
6205;SDS011;3136;48.788;9.772;2022-12-17T15:24:54;47.87;;;23.83;;
6205;SDS011;3136;48.788;9.772;2022-12-17T15:27:20;52.53;;;23.40;;
6205;SDS011;3136;48.788;9.772;2022-12-17T15:29:45;54.57;;;23.50;;
6205;SDS011;3136;48.788;9.772;2022-12-17T15:32:21;51.97;;;23.87;;
6205;SDS011;3136;48.788;9.772;2022-12-17T15:34:48;53.50;;;23.83;;
6205;SDS011;3136;48.788;9.772;2022-12-17T15:37:14;49.33;;;22.70;;
6205;SDS011;3136;48.788;9.772;2022-12-17T15:39:40;55.13;;;23.83;;
6205;SDS011;3136;48.788;9.772;2022-12-17T15:42:07;51.83;;;24.17;;
6205;SDS011;3136;48.788;9.772;2022-12-17T15:44:52;53.00;;;24.57;;
6205;SDS011;3136;48.788;9.772;2022-12-17T15:47:17;55.70;;;24.43;;
6205;SDS011;3136;48.788;9.772;2022-12-17T15:49:43;54.77;;;23.50;;
6205;SDS011;3136;48.788;9.772;2022-12-17T15:52:09;56.83;;;24.23;;
6205;SDS011;3136;48.788;9.772;2022-12-17T15:54:38;48.73;;;24.20;;
6205;SDS011;3136;48.788;9.772;2022-12-17T15:57:05;53.77;;;24.97;;
6205;SDS011;3136;48.788;9.772;2022-12-17T15:59:31;57.00;;;24.30;;
6205;SDS011;3136;48.788;9.772;2022-12-17T16:01:57;52.33;;;23.93;;
6205;SDS011;3136;48.788;9.772;2022-12-17T16:04:23;55.73;;;23.83;;
6205;SDS011;3136;48.788;9.772;2022-12-17T16:06:48;49.17;;;23.47;;
6205;SDS011;3136;48.788;9.772;2022-12-17T16:09:14;55.87;;;23.07;;
6205;SDS011;3136;48.788;9.772;2022-12-17T16:11:40;54.93;;;23.23;;
6205;SDS011;3136;48.788;9.772;2022-12-17T16:14:05;53.47;;;24.33;;
6205;SDS011;3136;48.788;9.772;2022-12-17T16:16:31;52.57;;;23.80;;
6205;SDS011;3136;48.788;9.772;2022-12-17T16:18:56;54.73;;;24.83;;
6205;SDS011;3136;48.788;9.772;2022-12-17T16:21:22;52.60;;;23.73;;
6205;SDS011;3136;48.788;9.772;2022-12-17T16:23:47;55.20;;;23.83;;
6205;SDS011;3136;48.788;9.772;2022-12-17T16:26:13;62.57;;;25.40;;
6205;SDS011;3136;48.788;9.772;2022-12-17T16:28:41;57.47;;;24.27;;
6205;SDS011;3136;48.788;9.772;2022-12-17T16:31:08;63.87;;;25.47;;
6205;SDS011;3136;48.788;9.772;2022-12-17T16:33:36;53.73;;;24.17;;
6205;SDS011;3136;48.788;9.772;2022-12-17T16:36:03;53.77;;;24.63;;
6205;SDS011;3136;48.788;9.772;2022-12-17T16:38:30;65.00;;;25.57;;
6205;SDS011;3136;48.788;9.772;2022-12-17T16:40:57;65.37;;;25.47;;
6205;SDS011;3136;48.788;9.772;2022-12-17T16:43:24;58.80;;;23.97;;
6205;SDS011;3136;48.788;9.772;2022-12-17T16:45:51;53.80;;;23.53;;
6205;SDS011;3136;48.788;9.772;2022-12-17T16:48:18;54.07;;;23.73;;
6205;SDS011;3136;48.788;9.772;2022-12-17T16:50:45;55.13;;;24.97;;
6205;SDS011;3136;48.788;9.772;2022-12-17T16:53:12;57.07;;;25.30;;
6205;SDS011;3136;48.788;9.772;2022-12-17T16:55:42;64.67;;;25.47;;
6205;SDS011;3136;48.788;9.772;2022-12-17T16:58:09;57.30;;;25.97;;
6205;SDS011;3136;48.788;9.772;2022-12-17T17:00:35;64.03;;;26.33;;
6205;SDS011;3136;48.788;9.772;2022-12-17T17:03:01;59.83;;;25.87;;
6205;SDS011;3136;48.788;9.772;2022-12-17T17:05:29;57.73;;;24.97;;
6205;SDS011;3136;48.788;9.772;2022-12-17T17:07:56;55.40;;;24.17;;
6205;SDS011;3136;48.788;9.772;2022-12-17T17:10:22;56.20;;;24.37;;
6205;SDS011;3136;48.788;9.772;2022-12-17T17:12:49;59.00;;;24.27;;
6205;SDS011;3136;48.788;9.772;2022-12-17T17:15:18;60.20;;;27.10;;
6205;SDS011;3136;48.788;9.772;2022-12-17T17:17:44;60.73;;;25.23;;
6205;SDS011;3136;48.788;9.772;2022-12-17T17:20:10;57.83;;;25.77;;
6205;SDS011;3136;48.788;9.772;2022-12-17T17:22:36;54.63;;;24.37;;
6205;SDS011;3136;48.788;9.772;2022-12-17T17:25:02;55.23;;;24.13;;
6205;SDS011;3136;48.788;9.772;2022-12-17T17:27:29;54.40;;;22.70;;
6205;SDS011;3136;48.788;9.772;2022-12-17T17:29:56;54.03;;;24.63;;